Alamota, KS

8:41 AM CDT on July 25, 2014 (GMT -0500)
Hineman Farms (KKSDIGHT3) Elev 2795 ft | 38.43 °N, 100.45 °W | Change Station

Current weather conditions updated 1 second ago

Clear
Clear
80.7 °F
Feels Like 82 °F
N
0.0
Wind Variable Wind from West
Gusts 0.0 mph

Today is forecast to be nearly the same temperature as yesterday.

Today
High -- | Low -- °F
--% Chance of Precip.
Yesterday
High -- | Low -- °F
Precip. -- in
6:37 AM 8:58 PM
Waning Crescent, 2% visible
Pressure 29.78 in
Visibility 9.0 miles
Clouds Clear
Heat Index 82 °F
Dew Point 63 °F
Humidity 55%
Rainfall 0.00 in
Snow Depth Not available.
UV 1 out of 12
Pollen 6.60 out of 12
Air Quality Not available.
Flu Activity Not available.
METAR KGCK 251254Z 21014G20KT 9SM CLR 24/16 A2990 RMK AO2 SLP084 T02390161

More Conditions Fewer Conditions

Pressure 29.78 in
Visibility 9.0 miles
Clouds Clear
Heat Index 82 °F
Dew Point 63 °F
Humidity 55%
Rainfall 0.00 in
Snow Depth Not available.
UV 1 out of 12
Pollen 6.60 out of 12
Air Quality Not available.
Flu Activity Not available.
METAR KGCK 251254Z 21014G20KT 9SM CLR 24/16 A2990 RMK AO2 SLP084 T02390161

More Conditions Fewer Conditions

10-Day Weather Forecast

Almanac

Astronomy

Jul. 25, 2014 Rise Set
Actual Time 6:37 AM CDT 8:58 PM CDT
Civil Twilight 6:07 AM CDT 9:28 PM CDT
Nautical Twilight 5:30 AM CDT 10:05 PM CDT
Astronomical Twilight 4:49 AM CDT 10:45 PM CDT
Moon 5:38 AM CDT 7:57 PM CDT
Length of Visible Light 15h 20m
Length of Day
14h 20m
Tomorrow will be 1m 41s shorter.
Waning Crescent, 2% of the Moon is Illuminated
Today
Waning Crescent
Jul 26
New
Aug 3
First Quarter
Aug 10
Full
Aug 17
Last Quarter

Today's Extremes

State Highs State Lows

Community

WunderPhotos

Upload Photos

1,737,324 photos uploaded!

Nearby

Snow Depth

Station Depth Elevation
No new snow has been reported.

Earthquake Activity

City Distance Mag. Time & Date
No recent earthquake activity has been reported nearby.
Minimum magnitude displayed is 2.5.

Coastal Water Temperatures

Place Temperature
No Stations Reporting

Nearby Weather Stations

Station Location Temp. Heat Index Dew Point Humidity Wind Precip. Elev Updated Type
Hineman Farms, Dighton, KS 80.7 °F 82 °F 63 °F 55% West  at  0.0 mph 0.00 in / hr 2795 ft 8:41 AM CDT Rapid Fire
SC-LN County Line/ Road 70, Scott City, KS 77.8 °F 79 °F 62 °F 59% SW  at  15.0 mph 0.00 in / hr 2946 ft 8:16 AM CDT Normal
JT Berning, Scott City, KS 79.1 °F 80 °F 62 °F 56% SW  at  10.0 mph 0.00 in / hr 2930 ft 8:41 AM CDT Rapid Fire
Schlegel Farms, Ness City, KS 83.7 °F 85 °F 65 °F 53% SW  at  25.0 mph 0.00 in / hr 2395 ft 8:41 AM CDT Normal
Gano Rd/ Rd 21, Scott City, KS 78.4 °F 80 °F 61 °F 56% SSW  at  14.0 mph 0.00 in / hr 2930 ft 8:15 AM CDT Normal

Show More Stations Show Fewer Stations